Time;durP1;ratioP1;P1;durP2;ratioP2;P2;SDS_P1;SDS_P2;PMS_P1;PMS_P2;Temp;Humidity;BMP_temperature;BMP_pressure;BME280_temperature;BME280_humidity;BME280_pressure;Samples;Min_cycle;Max_cycle;Signal;HPM_P1;HPM_P2
2023/04/20 00:00:50;;;;;;;57.10;33.80;;;;;;;6.82;89.06;98829.00;435550;1254;97861;-39
2023/04/20 00:10:58;;;;;;;63.00;33.70;;;;;;;6.84;89.07;98819.45;435382;1253;109859;-40
2023/04/20 00:21:05;;;;;;;74.80;35.70;;;;;;;6.83;89.15;98821.00;435340;1250;108276;-41
2023/04/20 00:31:12;;;;;;;71.20;32.90;;;;;;;6.86;89.26;98819.84;435333;1254;97897;-40
2023/04/20 00:41:19;;;;;;;75.70;37.90;;;;;;;6.92;89.44;98811.11;435202;1253;108227;-41
2023/04/20 00:51:30;;;;;;;70.80;36.50;;;;;;;6.87;89.24;98803.66;435436;1249;97880;-39
2023/04/20 01:01:37;;;;;;;69.70;38.70;;;;;;;6.86;89.41;98805.20;435294;1254;110104;-41
2023/04/20 01:11:44;;;;;;;77.20;35.60;;;;;;;6.85;89.68;98802.52;436177;1250;108422;-52
2023/04/20 01:21:53;;;;;;;73.10;37.10;;;;;;;6.85;89.61;98796.16;436619;1253;97867;-41
2023/04/20 01:32:00;;;;;;;73.30;37.90;;;;;;;6.91;89.79;98794.41;436626;1261;106599;-41
2023/04/20 01:42:05;;;;;;;77.50;36.70;;;;;;;6.93;89.75;98794.98;436714;1254;97880;-41
2023/04/20 01:52:12;;;;;;;82.60;38.20;;;;;;;6.91;89.90;98793.20;436896;1261;109824;-41
2023/04/20 02:02:19;;;;;;;73.00;36.60;;;;;;;6.92;89.96;98787.46;436826;1252;107459;-41
2023/04/20 02:12:26;;;;;;;63.50;31.40;;;;;;;6.75;89.83;98789.62;436797;1254;97954;-40
2023/04/20 02:32:40;;;;;;;68.30;31.20;;;;;;;6.66;90.34;98799.00;436984;1253;98008;-41
2023/04/20 02:42:48;;;;;;;72.10;33.70;;;;;;;6.67;90.54;98803.73;437198;1254;110467;-41
2023/04/20 02:52:55;;;;;;;71.30;32.80;;;;;;;6.73;90.57;98802.67;437012;1253;107326;-41
2023/04/20 03:03:02;;;;;;;71.50;33.10;;;;;;;6.82;90.84;98795.94;437142;1253;97874;-41
2023/04/20 03:13:08;;;;;;;68.10;34.40;;;;;;;6.88;90.73;98791.58;436981;1251;108303;-40
2023/04/20 03:23:15;;;;;;;68.60;34.10;;;;;;;6.94;90.72;98794.09;436905;1254;98511;-40
2023/04/20 03:33:22;;;;;;;69.60;32.30;;;;;;;6.96;90.78;98804.16;436814;1253;112147;-40
2023/04/20 03:43:29;;;;;;;77.70;33.90;;;;;;;6.97;90.84;98811.80;437010;1254;109203;-42
2023/04/20 03:53:36;;;;;;;74.40;35.10;;;;;;;6.96;90.73;98820.98;436928;1251;97912;-39
2023/04/20 04:03:45;;;;;;;81.90;37.40;;;;;;;6.97;90.91;98821.62;437105;1251;108304;-40
2023/04/20 04:13:52;;;;;;;77.00;39.30;;;;;;;7.04;90.93;98827.68;437088;1261;98450;-39
2023/04/20 04:23:59;;;;;;;90.40;39.60;;;;;;;7.07;91.21;98833.04;437067;1261;109255;-41
2023/04/20 04:34:07;;;;;;;81.00;39.80;;;;;;;7.19;91.15;98830.86;437019;1248;108502;-41
2023/04/20 04:44:15;;;;;;;95.20;43.90;;;;;;;7.13;91.18;98829.03;437022;1251;97862;-40
2023/04/20 04:54:22;;;;;;;90.80;40.00;;;;;;;7.08;91.25;98833.77;437112;1248;109858;-39
2023/04/20 05:04:27;;;;;;;87.00;37.90;;;;;;;7.04;91.10;98842.29;436742;1251;108152;-41
2023/04/20 05:14:35;;;;;;;83.40;38.70;;;;;;;7.15;91.39;98851.85;436711;1251;97934;-40
2023/04/20 05:24:42;;;;;;;79.50;35.80;;;;;;;7.29;91.43;98854.67;436601;1251;107084;-41
2023/04/20 05:34:50;;;;;;;88.20;39.00;;;;;;;7.37;91.48;98865.65;436541;1254;96644;-40
2023/04/20 05:44:57;;;;;;;82.70;39.40;;;;;;;7.43;91.35;98872.66;436499;1252;108902;-39
2023/04/20 05:55:03;;;;;;;83.60;39.80;;;;;;;7.50;91.50;98879.11;436523;1251;108381;-41
2023/04/20 06:05:11;;;;;;;91.90;40.00;;;;;;;7.56;91.59;98871.14;436474;1251;97715;-39
2023/04/20 06:15:19;;;;;;;77.00;37.40;;;;;;;7.81;91.66;98870.13;436571;1251;108840;-40
2023/04/20 06:25:27;;;;;;;80.70;37.10;;;;;;;8.08;91.63;98866.86;436456;1261;97864;-39
2023/04/20 06:35:34;;;;;;;75.00;37.00;;;;;;;8.38;91.69;98878.64;436530;1248;108554;-39
2023/04/20 06:45:42;;;;;;;72.70;35.30;;;;;;;8.56;91.41;98887.22;436556;1251;108508;-40
2023/04/20 06:55:49;;;;;;;65.80;34.10;;;;;;;8.67;91.36;98879.94;436498;1247;97928;-43
2023/04/20 07:05:57;;;;;;;67.90;35.60;;;;;;;8.83;91.29;98883.79;436394;1270;108332;-39
2023/04/20 07:16:05;;;;;;;76.70;37.00;;;;;;;9.14;91.41;98889.15;436623;1251;97093;-40
2023/04/20 07:26:12;;;;;;;71.10;37.90;;;;;;;9.28;91.35;98895.61;436809;1251;108852;-40
2023/04/20 07:36:21;;;;;;;57.70;33.00;;;;;;;9.50;91.13;98897.11;436772;1251;108178;-41
2023/04/20 07:56:35;;;;;;;52.40;30.70;;;;;;;10.12;90.80;98899.16;436693;1261;110428;-40
2023/04/20 08:06:42;;;;;;;59.60;33.00;;;;;;;10.41;90.42;98900.56;436639;1248;109084;-41
2023/04/20 08:16:50;;;;;;;50.80;27.70;;;;;;;10.67;89.83;98905.69;436577;1247;97960;-41
2023/04/20 08:26:58;;;;;;;51.00;29.80;;;;;;;11.06;89.55;98914.08;436725;1251;107088;-41
2023/04/20 08:37:06;;;;;;;46.30;27.30;;;;;;;11.48;89.23;98920.04;436924;1248;97896;-41
2023/04/20 08:47:14;;;;;;;44.50;26.90;;;;;;;11.50;87.28;98921.06;436673;1251;109342;-40
2023/04/20 08:57:22;;;;;;;48.90;26.30;;;;;;;11.30;87.29;98922.58;436750;1251;109758;-40
2023/04/20 09:07:29;;;;;;;43.30;25.70;;;;;;;11.29;87.16;98918.98;436903;1251;97753;-40
2023/04/20 09:27:54;;;;;;;44.30;22.30;;;;;;;11.11;85.95;98924.95;436594;1251;108740;-40
2023/04/20 09:38:02;;;;;;;45.00;24.20;;;;;;;11.12;85.84;98931.17;436456;1251;96685;-41
2023/04/20 09:48:13;;;;;;;35.40;21.50;;;;;;;11.20;85.38;98934.43;436481;1251;110765;-40
2023/04/20 10:08:26;;;;;;;41.00;23.40;;;;;;;11.68;84.59;98933.05;436677;1247;97895;-41
2023/04/20 10:18:33;;;;;;;37.20;19.50;;;;;;;11.81;83.48;98928.30;436047;1251;536733;-40
2023/04/20 10:28:43;;;;;;;33.90;21.60;;;;;;;12.02;82.35;98925.31;437135;1251;108891;-41
2023/04/20 11:09:27;;;;;;;34.00;18.90;;;;;;;13.06;78.80;98895.13;436923;1251;97880;-40
2023/04/20 11:19:36;;;;;;;43.90;20.00;;;;;;;13.63;77.17;98894.85;436961;1247;111114;-41
2023/04/20 11:29:43;;;;;;;35.10;19.10;;;;;;;13.95;76.10;98893.02;436557;1247;108819;-40
2023/04/20 11:39:58;;;;;;;25.40;15.10;;;;;;;14.00;75.45;98892.71;436909;1248;97858;-41
2023/04/20 11:50:03;;;;;;;47.70;17.70;;;;;;;14.64;73.88;98882.16;436707;1251;108550;-41
2023/04/20 12:00:12;;;;;;;26.40;14.10;;;;;;;14.38;72.34;98891.04;436776;1247;97853;-40
2023/04/20 12:10:18;;;;;;;;;;;;;;;14.65;72.64;98886.52;436779;1251;110215;-41
2023/04/20 12:20:25;;;;;;;19.10;6.40;;;;;;;15.16;70.53;98878.31;436805;1247;107586;-43
2023/04/20 12:30:33;;;;;;;15.20;5.70;;;;;;;15.03;67.59;98873.20;436814;1251;97492;-41
2023/04/20 12:40:41;;;;;;;13.10;5.80;;;;;;;14.95;66.83;98868.55;436778;1251;111051;-41
2023/04/20 12:50:48;;;;;;;15.20;5.70;;;;;;;15.37;66.84;98859.63;436854;1247;106660;-41
2023/04/20 13:00:55;;;;;;;17.80;6.80;;;;;;;15.78;64.09;98849.86;436917;1247;97928;-40
2023/04/20 13:21:08;;;;;;;18.90;8.70;;;;;;;15.07;65.08;98845.26;436849;1247;97922;-40
2023/04/20 13:31:16;;;;;;;21.60;9.00;;;;;;;14.96;65.69;98841.01;436793;1251;110609;-42
2023/04/20 13:41:23;;;;;;;20.70;7.00;;;;;;;15.43;66.45;98831.33;436563;1251;108265;-40
2023/04/20 13:51:31;;;;;;;14.80;4.90;;;;;;;15.54;65.32;98839.46;437152;1247;97957;-41
2023/04/20 14:01:38;;;;;;;18.80;6.70;;;;;;;15.27;64.05;98847.08;436473;1251;110461;-41
2023/04/20 14:11:45;;;;;;;16.90;5.80;;;;;;;14.33;64.58;98856.30;436659;1253;108064;-41
2023/04/20 14:21:52;;;;;;;11.90;5.00;;;;;;;13.79;66.68;98861.24;436374;1253;96626;-41
2023/04/20 14:32:00;;;;;;;10.60;4.80;;;;;;;13.72;68.25;98859.05;436522;1253;109655;-41
2023/04/20 14:42:08;;;;;;;11.40;5.70;;;;;;;13.92;68.65;98847.58;436528;1251;107907;-40
2023/04/20 14:52:14;;;;;;;6.40;4.40;;;;;;;14.38;69.41;98836.40;436528;1247;97863;-41
2023/04/20 15:02:21;;;;;;;7.50;3.60;;;;;;;14.76;69.63;98829.86;438172;1247;110371;-41
2023/04/20 15:12:29;;;;;;;11.40;4.30;;;;;;;14.87;68.97;98835.48;438352;1247;107058;-41
2023/04/20 15:22:36;;;;;;;16.50;4.50;;;;;;;14.89;68.76;98833.75;436444;1247;97893;-40
2023/04/20 15:32:44;;;;;;;20.80;5.50;;;;;;;14.87;68.92;98833.25;436504;1247;109898;-40
2023/04/20 15:42:50;;;;;;;13.80;5.20;;;;;;;14.69;68.28;98843.36;436481;1248;107254;-40
2023/04/20 15:52:57;;;;;;;14.70;5.40;;;;;;;14.43;68.36;98835.83;436557;1248;97954;-42
2023/04/20 16:03:05;;;;;;;10.10;5.30;;;;;;;14.49;68.73;98833.42;436325;1248;108653;-40
2023/04/20 16:13:12;;;;;;;14.80;7.00;;;;;;;14.66;68.85;98832.42;436372;1247;97890;-42
2023/04/20 16:23:19;;;;;;;11.70;5.80;;;;;;;14.65;68.84;98825.91;436365;1247;111782;-42
2023/04/20 16:33:28;;;;;;;19.50;7.70;;;;;;;14.46;69.20;98826.25;436372;1248;109363;-41
2023/04/20 16:43:35;;;;;;;17.70;8.30;;;;;;;14.29;69.54;98829.76;436549;1247;97893;-41
2023/04/20 16:53:44;;;;;;;16.40;7.00;;;;;;;14.24;70.10;98828.11;437760;1251;107394;-41
2023/04/20 17:03:51;;;;;;;16.20;7.40;;;;;;;14.16;70.33;98828.73;436437;1249;97863;-40
2023/04/20 17:13:59;;;;;;;46.80;19.50;;;;;;;13.99;70.64;98828.96;436341;1247;111199;-40
2023/04/20 17:24:04;;;;;;;33.40;19.80;;;;;;;13.79;70.96;98835.29;436408;1253;107309;-42
2023/04/20 17:34:11;;;;;;;48.00;25.40;;;;;;;13.56;71.40;98836.71;436406;1253;97885;-41
2023/04/20 17:44:18;;;;;;;115.40;56.10;;;;;;;13.31;71.65;98840.71;436405;1253;110584;-40
2023/04/20 17:54:27;;;;;;;80.40;40.30;;;;;;;13.09;72.02;98839.42;436420;1262;110650;-41
2023/04/20 18:04:34;;;;;;;62.40;30.80;;;;;;;12.95;72.49;98841.79;436401;1253;97772;-43
2023/04/20 18:14:41;;;;;;;34.10;18.10;;;;;;;12.60;72.87;98845.06;436578;1248;111387;-41
2023/04/20 18:24:48;;;;;;;24.90;11.20;;;;;;;12.14;73.06;98852.41;436390;1252;108185;-41
2023/04/20 18:34:55;;;;;;;25.20;11.70;;;;;;;11.76;73.62;98861.75;436374;1257;97862;-41
2023/04/20 18:45:04;;;;;;;64.20;33.60;;;;;;;11.57;74.23;98854.01;436578;1252;110474;-41
2023/04/20 18:55:09;;;;;;;61.10;32.60;;;;;;;11.32;74.56;98861.96;436457;1247;106906;-40
2023/04/20 19:05:17;;;;;;;67.70;33.40;;;;;;;10.91;74.72;98863.37;436356;1250;96639;-42
2023/04/20 19:15:24;;;;;;;51.60;28.00;;;;;;;10.51;75.03;98863.91;436360;1253;109430;-40
2023/04/20 19:25:31;;;;;;;68.20;32.70;;;;;;;10.23;75.35;98861.48;436373;1254;107688;-41
2023/04/20 19:35:39;;;;;;;60.60;33.10;;;;;;;10.03;75.69;98860.64;436349;1247;98309;-40
2023/04/20 19:45:47;;;;;;;71.40;39.50;;;;;;;9.87;76.18;98858.83;436315;1254;106223;-40
2023/04/20 19:55:54;;;;;;;73.00;39.90;;;;;;;9.52;76.31;98856.56;436431;1248;97873;-40
2023/04/20 20:06:02;;;;;;;78.30;41.50;;;;;;;9.31;76.76;98857.48;436379;1263;109284;-40
2023/04/20 20:26:16;;;;;;;54.60;34.80;;;;;;;9.12;77.37;98851.81;436380;1254;97957;-41
2023/04/20 20:36:23;;;;;;;57.60;35.80;;;;;;;9.10;77.78;98848.02;436433;1253;107906;-41
2023/04/20 20:56:36;;;;;;;75.90;46.60;;;;;;;8.66;78.00;98843.85;436523;1253;109378;-40
2023/04/20 21:06:44;;;;;;;71.80;40.00;;;;;;;8.35;78.04;98842.25;436380;1254;108364;-41
2023/04/20 21:16:51;;;;;;;71.60;42.50;;;;;;;8.21;78.38;98846.70;436765;1261;97874;-40
2023/04/20 21:26:58;;;;;;;63.00;38.30;;;;;;;8.07;78.43;98848.40;436505;1261;108620;-39
2023/04/20 21:37:06;;;;;;;77.30;41.20;;;;;;;7.91;78.34;98845.48;436459;1254;97460;-40
2023/04/20 21:47:13;;;;;;;86.10;44.40;;;;;;;7.72;78.58;98852.93;436387;1248;111105;-40
2023/04/20 21:57:19;;;;;;;88.00;45.40;;;;;;;7.48;78.70;98852.70;436266;1253;108285;-41
2023/04/20 22:07:26;;;;;;;76.40;42.90;;;;;;;7.23;78.91;98856.66;436382;1261;97559;-41
2023/04/20 22:17:34;;;;;;;73.60;41.80;;;;;;;7.16;79.17;98858.20;436426;1248;288136;-41
2023/04/20 22:27:42;;;;;;;71.30;40.70;;;;;;;7.07;79.06;98859.48;436399;1261;106848;-40
2023/04/20 22:37:48;;;;;;;72.60;40.50;;;;;;;6.96;79.30;98857.86;436553;1253;97746;-40
2023/04/20 22:47:56;;;;;;;75.10;39.60;;;;;;;6.95;79.51;98868.34;436359;1253;107551;-41
2023/04/20 22:58:03;;;;;;;76.70;35.60;;;;;;;6.95;79.73;98869.31;436499;1261;97864;-41
2023/04/20 23:08:10;;;;;;;58.00;33.30;;;;;;;6.97;79.95;98865.23;436384;1254;109304;-40
2023/04/20 23:18:17;;;;;;;60.20;35.20;;;;;;;7.08;80.34;98863.42;436348;1258;109392;-41
2023/04/20 23:28:24;;;;;;;49.40;30.90;;;;;;;7.14;80.50;98861.20;436282;1253;96666;-40
2023/04/20 23:38:29;;;;;;;57.00;37.20;;;;;;;7.11;80.60;98861.77;436399;1254;108231;-41
2023/04/20 23:48:36;;;;;;;64.70;37.30;;;;;;;6.97;80.82;98861.95;436410;1254;97895;-41
2023/04/20 23:58:43;;;;;;;50.80;31.50;;;;;;;6.80;80.72;98853.08;436252;1261;110411;-40
